sensor_id;sensor_type;location;lat;lon;timestamp;pressure;altitude;pressure_sealevel;temperature;humidity
64340;BME280;63709;53.258;-8.814;2023-03-22T00:02:23;98780.78;;;12.28;100.00
64340;BME280;63709;53.258;-8.814;2023-03-22T00:04:50;98796.53;;;12.46;100.00
64340;BME280;63709;53.258;-8.814;2023-03-22T00:07:17;98792.19;;;12.45;100.00
64340;BME280;63709;53.258;-8.814;2023-03-22T00:09:45;98803.78;;;12.37;100.00
64340;BME280;63709;53.258;-8.814;2023-03-22T00:12:11;98796.34;;;12.24;100.00
64340;BME280;63709;53.258;-8.814;2023-03-22T00:14:38;98803.63;;;12.30;100.00
64340;BME280;63709;53.258;-8.814;2023-03-22T00:17:04;98808.81;;;12.32;100.00
64340;BME280;63709;53.258;-8.814;2023-03-22T00:19:30;98812.16;;;12.34;100.00
64340;BME280;63709;53.258;-8.814;2023-03-22T00:21:59;98846.44;;;12.30;100.00
64340;BME280;63709;53.258;-8.814;2023-03-22T00:24:26;98874.00;;;11.92;100.00
64340;BME280;63709;53.258;-8.814;2023-03-22T00:26:53;98849.97;;;11.67;100.00
64340;BME280;63709;53.258;-8.814;2023-03-22T00:29:18;98855.53;;;11.57;100.00
64340;BME280;63709;53.258;-8.814;2023-03-22T00:31:46;98861.72;;;11.42;100.00
64340;BME280;63709;53.258;-8.814;2023-03-22T00:34:14;98872.09;;;11.20;100.00
64340;BME280;63709;53.258;-8.814;2023-03-22T00:36:39;98858.06;;;11.26;100.00
64340;BME280;63709;53.258;-8.814;2023-03-22T00:39:10;98866.91;;;11.19;100.00
64340;BME280;63709;53.258;-8.814;2023-03-22T00:41:35;98859.41;;;11.14;100.00
64340;BME280;63709;53.258;-8.814;2023-03-22T00:44:01;98862.72;;;11.08;100.00
64340;BME280;63709;53.258;-8.814;2023-03-22T00:46:26;98877.59;;;11.10;100.00
64340;BME280;63709;53.258;-8.814;2023-03-22T00:48:52;98876.25;;;11.06;100.00
64340;BME280;63709;53.258;-8.814;2023-03-22T00:51:17;98883.94;;;11.09;100.00
64340;BME280;63709;53.258;-8.814;2023-03-22T00:53:42;98886.59;;;11.18;100.00
64340;BME280;63709;53.258;-8.814;2023-03-22T00:56:10;98886.94;;;11.31;100.00
64340;BME280;63709;53.258;-8.814;2023-03-22T00:58:37;98888.78;;;11.38;100.00
64340;BME280;63709;53.258;-8.814;2023-03-22T01:01:04;98901.28;;;11.38;100.00
64340;BME280;63709;53.258;-8.814;2023-03-22T01:03:31;98916.00;;;11.42;100.00
64340;BME280;63709;53.258;-8.814;2023-03-22T01:05:58;98923.34;;;11.24;100.00
64340;BME280;63709;53.258;-8.814;2023-03-22T01:08:24;98927.16;;;11.13;100.00
64340;BME280;63709;53.258;-8.814;2023-03-22T01:10:50;98931.16;;;11.09;100.00
64340;BME280;63709;53.258;-8.814;2023-03-22T01:13:15;98933.47;;;11.12;100.00
64340;BME280;63709;53.258;-8.814;2023-03-22T01:15:41;98943.47;;;10.94;100.00
64340;BME280;63709;53.258;-8.814;2023-03-22T01:18:07;98935.31;;;11.03;100.00
64340;BME280;63709;53.258;-8.814;2023-03-22T01:20:33;98943.66;;;11.00;100.00
64340;BME280;63709;53.258;-8.814;2023-03-22T01:23:00;98949.31;;;10.97;100.00
64340;BME280;63709;53.258;-8.814;2023-03-22T01:25:25;98941.81;;;11.01;100.00
64340;BME280;63709;53.258;-8.814;2023-03-22T01:27:50;98957.88;;;11.09;100.00
64340;BME280;63709;53.258;-8.814;2023-03-22T01:30:17;98960.00;;;10.97;100.00
64340;BME280;63709;53.258;-8.814;2023-03-22T01:32:43;98967.84;;;11.07;100.00
64340;BME280;63709;53.258;-8.814;2023-03-22T01:35:08;98958.28;;;10.72;100.00
64340;BME280;63709;53.258;-8.814;2023-03-22T01:37:34;98958.00;;;10.99;100.00
64340;BME280;63709;53.258;-8.814;2023-03-22T01:40:00;98965.81;;;10.93;100.00
64340;BME280;63709;53.258;-8.814;2023-03-22T01:42:26;98973.81;;;10.84;100.00
64340;BME280;63709;53.258;-8.814;2023-03-22T01:47:36;98976.59;;;10.75;100.00
64340;BME280;63709;53.258;-8.814;2023-03-22T01:50:01;98975.56;;;10.59;100.00
64340;BME280;63709;53.258;-8.814;2023-03-22T01:52:27;98977.63;;;10.74;100.00
64340;BME280;63709;53.258;-8.814;2023-03-22T01:54:53;98974.22;;;10.63;100.00
64340;BME280;63709;53.258;-8.814;2023-03-22T01:57:20;98966.28;;;10.72;100.00
64340;BME280;63709;53.258;-8.814;2023-03-22T01:59:45;98969.41;;;10.67;100.00
64340;BME280;63709;53.258;-8.814;2023-03-22T02:02:12;98966.75;;;10.67;100.00
64340;BME280;63709;53.258;-8.814;2023-03-22T02:04:43;98971.25;;;10.66;100.00
64340;BME280;63709;53.258;-8.814;2023-03-22T02:07:11;98962.72;;;10.63;100.00
64340;BME280;63709;53.258;-8.814;2023-03-22T02:09:41;98971.09;;;10.68;100.00
64340;BME280;63709;53.258;-8.814;2023-03-22T02:12:12;98972.09;;;10.75;100.00
64340;BME280;63709;53.258;-8.814;2023-03-22T02:15:00;98977.81;;;10.88;100.00
64340;BME280;63709;53.258;-8.814;2023-03-22T02:25:17;98989.22;;;11.15;100.00
64340;BME280;63709;53.258;-8.814;2023-03-22T02:31:12;98997.09;;;11.17;100.00
64340;BME280;63709;53.258;-8.814;2023-03-22T02:36:10;98996.78;;;11.28;100.00
64340;BME280;63709;53.258;-8.814;2023-03-22T02:49:03;99002.03;;;10.95;100.00
64340;BME280;63709;53.258;-8.814;2023-03-22T02:51:41;99010.88;;;10.96;100.00
64340;BME280;63709;53.258;-8.814;2023-03-22T02:54:09;99014.22;;;10.98;100.00
64340;BME280;63709;53.258;-8.814;2023-03-22T02:56:36;99008.91;;;10.98;100.00
64340;BME280;63709;53.258;-8.814;2023-03-22T02:59:05;99015.06;;;10.98;100.00
64340;BME280;63709;53.258;-8.814;2023-03-22T03:01:34;99015.59;;;11.10;100.00
64340;BME280;63709;53.258;-8.814;2023-03-22T03:04:03;99007.25;;;11.13;100.00
64340;BME280;63709;53.258;-8.814;2023-03-22T03:06:31;99008.94;;;11.14;100.00
64340;BME280;63709;53.258;-8.814;2023-03-22T03:09:00;99009.63;;;11.24;100.00
64340;BME280;63709;53.258;-8.814;2023-03-22T03:11:29;99019.28;;;11.25;100.00
64340;BME280;63709;53.258;-8.814;2023-03-22T03:13:55;99028.66;;;11.46;100.00
64340;BME280;63709;53.258;-8.814;2023-03-22T03:16:20;99022.16;;;11.32;100.00
64340;BME280;63709;53.258;-8.814;2023-03-22T03:18:53;99030.16;;;11.40;100.00
64340;BME280;63709;53.258;-8.814;2023-03-22T03:23:57;99036.03;;;11.44;100.00
64340;BME280;63709;53.258;-8.814;2023-03-22T03:26:28;99039.66;;;11.26;100.00
64340;BME280;63709;53.258;-8.814;2023-03-22T03:29:01;99041.38;;;11.44;100.00
64340;BME280;63709;53.258;-8.814;2023-03-22T03:34:34;99030.34;;;11.47;100.00
64340;BME280;63709;53.258;-8.814;2023-03-22T03:37:14;99030.34;;;11.47;100.00
64340;BME280;63709;53.258;-8.814;2023-03-22T03:39:47;99040.22;;;11.46;100.00
64340;BME280;63709;53.258;-8.814;2023-03-22T03:42:14;99033.16;;;11.45;100.00
64340;BME280;63709;53.258;-8.814;2023-03-22T03:44:42;99030.50;;;11.45;100.00
64340;BME280;63709;53.258;-8.814;2023-03-22T03:47:08;99037.19;;;11.49;100.00
64340;BME280;63709;53.258;-8.814;2023-03-22T03:49:35;99025.66;;;11.49;100.00
64340;BME280;63709;53.258;-8.814;2023-03-22T03:52:02;99028.19;;;11.50;100.00
64340;BME280;63709;53.258;-8.814;2023-03-22T03:54:28;99031.69;;;11.59;100.00
64340;BME280;63709;53.258;-8.814;2023-03-22T03:56:53;99039.53;;;11.60;100.00
64340;BME280;63709;53.258;-8.814;2023-03-22T03:59:19;99046.25;;;11.65;100.00
64340;BME280;63709;53.258;-8.814;2023-03-22T04:01:45;99041.03;;;11.63;100.00
64340;BME280;63709;53.258;-8.814;2023-03-22T04:04:18;99055.03;;;11.41;100.00
64340;BME280;63709;53.258;-8.814;2023-03-22T04:06:57;99059.34;;;11.25;100.00
64340;BME280;63709;53.258;-8.814;2023-03-22T04:09:25;99053.31;;;11.15;100.00
64340;BME280;63709;53.258;-8.814;2023-03-22T04:11:56;99056.97;;;11.14;100.00
64340;BME280;63709;53.258;-8.814;2023-03-22T04:14:22;99055.25;;;11.05;100.00
64340;BME280;63709;53.258;-8.814;2023-03-22T04:16:48;99055.72;;;10.84;100.00
64340;BME280;63709;53.258;-8.814;2023-03-22T04:19:13;99056.19;;;10.79;100.00
64340;BME280;63709;53.258;-8.814;2023-03-22T04:21:40;99052.84;;;10.77;100.00
64340;BME280;63709;53.258;-8.814;2023-03-22T04:24:07;99049.47;;;10.75;100.00
64340;BME280;63709;53.258;-8.814;2023-03-22T04:26:33;99057.09;;;10.62;100.00
64340;BME280;63709;53.258;-8.814;2023-03-22T04:28:59;99060.41;;;10.56;100.00
64340;BME280;63709;53.258;-8.814;2023-03-22T04:31:27;99056.06;;;10.55;100.00
64340;BME280;63709;53.258;-8.814;2023-03-22T04:33:53;99053.34;;;10.47;100.00
64340;BME280;63709;53.258;-8.814;2023-03-22T04:36:22;99045.66;;;10.44;100.00
64340;BME280;63709;53.258;-8.814;2023-03-22T04:38:48;99060.34;;;10.48;100.00
64340;BME280;63709;53.258;-8.814;2023-03-22T04:41:14;99052.34;;;10.48;100.00
64340;BME280;63709;53.258;-8.814;2023-03-22T04:43:40;99051.16;;;10.68;100.00
64340;BME280;63709;53.258;-8.814;2023-03-22T04:46:05;99047.47;;;10.69;100.00
64340;BME280;63709;53.258;-8.814;2023-03-22T04:48:40;99038.50;;;10.78;100.00
64340;BME280;63709;53.258;-8.814;2023-03-22T04:51:06;99088.22;;;10.79;100.00
64340;BME280;63709;53.258;-8.814;2023-03-22T04:53:33;99083.56;;;10.55;100.00
64340;BME280;63709;53.258;-8.814;2023-03-22T04:56:03;99087.84;;;10.74;100.00
64340;BME280;63709;53.258;-8.814;2023-03-22T04:58:31;99083.84;;;10.78;100.00
64340;BME280;63709;53.258;-8.814;2023-03-22T05:00:57;99084.16;;;10.75;100.00
64340;BME280;63709;53.258;-8.814;2023-03-22T05:03:22;99099.34;;;10.75;100.00
64340;BME280;63709;53.258;-8.814;2023-03-22T05:05:49;99099.69;;;10.72;100.00
64340;BME280;63709;53.258;-8.814;2023-03-22T05:08:15;99089.88;;;10.80;100.00
64340;BME280;63709;53.258;-8.814;2023-03-22T05:10:40;99094.75;;;10.59;100.00
64340;BME280;63709;53.258;-8.814;2023-03-22T05:13:05;99087.91;;;10.56;100.00
64340;BME280;63709;53.258;-8.814;2023-03-22T05:15:31;99092.34;;;10.48;100.00
64340;BME280;63709;53.258;-8.814;2023-03-22T05:17:56;99086.81;;;10.41;100.00
64340;BME280;63709;53.258;-8.814;2023-03-22T05:20:23;99083.63;;;10.37;100.00
64340;BME280;63709;53.258;-8.814;2023-03-22T05:22:49;99084.00;;;10.43;100.00
64340;BME280;63709;53.258;-8.814;2023-03-22T05:25:15;99086.50;;;10.44;100.00
64340;BME280;63709;53.258;-8.814;2023-03-22T05:27:42;99077.31;;;10.38;100.00
64340;BME280;63709;53.258;-8.814;2023-03-22T05:30:07;99073.88;;;10.46;100.00
64340;BME280;63709;53.258;-8.814;2023-03-22T05:32:34;99077.31;;;10.38;100.00
64340;BME280;63709;53.258;-8.814;2023-03-22T05:37:33;99090.47;;;10.66;100.00
64340;BME280;63709;53.258;-8.814;2023-03-22T05:40:00;99090.69;;;10.73;100.00
64340;BME280;63709;53.258;-8.814;2023-03-22T05:42:26;99088.53;;;10.76;100.00
64340;BME280;63709;53.258;-8.814;2023-03-22T05:44:51;99087.41;;;10.87;100.00
64340;BME280;63709;53.258;-8.814;2023-03-22T05:47:18;99080.59;;;10.93;100.00
64340;BME280;63709;53.258;-8.814;2023-03-22T05:49:43;99082.38;;;10.76;100.00
64340;BME280;63709;53.258;-8.814;2023-03-22T05:52:08;99083.22;;;10.84;100.00
64340;BME280;63709;53.258;-8.814;2023-03-22T05:54:35;99085.19;;;10.82;100.00
64340;BME280;63709;53.258;-8.814;2023-03-22T05:57:00;99080.03;;;10.81;100.00
64340;BME280;63709;53.258;-8.814;2023-03-22T05:59:26;99075.28;;;10.66;100.00
64340;BME280;63709;53.258;-8.814;2023-03-22T06:01:52;99072.41;;;10.60;100.00
64340;BME280;63709;53.258;-8.814;2023-03-22T06:04:18;99079.84;;;10.48;100.00
64340;BME280;63709;53.258;-8.814;2023-03-22T06:06:46;99074.66;;;10.38;100.00
64340;BME280;63709;53.258;-8.814;2023-03-22T06:09:13;99090.75;;;10.29;100.00
64340;BME280;63709;53.258;-8.814;2023-03-22T06:11:39;99082.78;;;10.19;100.00
64340;BME280;63709;53.258;-8.814;2023-03-22T06:14:04;99088.00;;;10.21;100.00
64340;BME280;63709;53.258;-8.814;2023-03-22T06:16:31;99082.47;;;9.96;100.00
64340;BME280;63709;53.258;-8.814;2023-03-22T06:18:58;99080.19;;;10.01;100.00
64340;BME280;63709;53.258;-8.814;2023-03-22T06:21:24;99084.00;;;9.99;100.00
64340;BME280;63709;53.258;-8.814;2023-03-22T06:23:49;99084.50;;;10.02;100.00
64340;BME280;63709;53.258;-8.814;2023-03-22T06:26:17;99083.22;;;9.88;100.00
64340;BME280;63709;53.258;-8.814;2023-03-22T06:28:42;99076.28;;;9.96;100.00
64340;BME280;63709;53.258;-8.814;2023-03-22T06:31:14;99086.59;;;9.90;100.00
64340;BME280;63709;53.258;-8.814;2023-03-22T06:33:40;99087.03;;;9.86;100.00
64340;BME280;63709;53.258;-8.814;2023-03-22T06:36:05;99083.75;;;9.92;100.00
64340;BME280;63709;53.258;-8.814;2023-03-22T06:38:32;99068.59;;;9.92;100.00
64340;BME280;63709;53.258;-8.814;2023-03-22T06:40:57;99077.59;;;9.91;100.00
64340;BME280;63709;53.258;-8.814;2023-03-22T06:43:23;99075.00;;;9.82;100.00
64340;BME280;63709;53.258;-8.814;2023-03-22T06:45:50;99083.59;;;9.93;100.00
64340;BME280;63709;53.258;-8.814;2023-03-22T06:48:16;99085.72;;;9.90;100.00
64340;BME280;63709;53.258;-8.814;2023-03-22T06:50:42;99083.75;;;9.92;100.00
64340;BME280;63709;53.258;-8.814;2023-03-22T06:53:08;99079.97;;;9.94;100.00
64340;BME280;63709;53.258;-8.814;2023-03-22T06:55:33;99084.34;;;10.04;100.00
64340;BME280;63709;53.258;-8.814;2023-03-22T06:58:00;99084.34;;;10.04;100.00
64340;BME280;63709;53.258;-8.814;2023-03-22T07:00:26;99071.78;;;10.14;100.00
64340;BME280;63709;53.258;-8.814;2023-03-22T07:02:54;99073.31;;;10.16;100.00
64340;BME280;63709;53.258;-8.814;2023-03-22T07:05:21;99077.06;;;10.06;100.00
64340;BME280;63709;53.258;-8.814;2023-03-22T07:07:46;99071.31;;;10.18;100.00
64340;BME280;63709;53.258;-8.814;2023-03-22T07:10:13;99069.47;;;10.19;100.00
64340;BME280;63709;53.258;-8.814;2023-03-22T07:12:38;99067.19;;;10.24;100.00
64340;BME280;63709;53.258;-8.814;2023-03-22T07:15:05;99054.59;;;10.34;100.00
64340;BME280;63709;53.258;-8.814;2023-03-22T07:17:31;99048.28;;;10.35;100.00
64340;BME280;63709;53.258;-8.814;2023-03-22T07:19:56;99053.75;;;10.34;100.00
64340;BME280;63709;53.258;-8.814;2023-03-22T07:22:22;99050.91;;;10.27;100.00
64340;BME280;63709;53.258;-8.814;2023-03-22T07:24:52;99053.03;;;10.24;100.00
64340;BME280;63709;53.258;-8.814;2023-03-22T07:27:18;99031.91;;;10.30;100.00
64340;BME280;63709;53.258;-8.814;2023-03-22T07:29:43;99049.44;;;10.15;100.00
64340;BME280;63709;53.258;-8.814;2023-03-22T07:32:10;99046.09;;;10.31;100.00
64340;BME280;63709;53.258;-8.814;2023-03-22T07:34:42;99036.31;;;10.39;100.00
64340;BME280;63709;53.258;-8.814;2023-03-22T07:37:07;99051.31;;;10.40;100.00
64340;BME280;63709;53.258;-8.814;2023-03-22T07:39:33;99047.88;;;10.56;100.00
64340;BME280;63709;53.258;-8.814;2023-03-22T07:41:59;99035.66;;;10.72;100.00
64340;BME280;63709;53.258;-8.814;2023-03-22T07:44:25;99039.31;;;10.79;100.00
64340;BME280;63709;53.258;-8.814;2023-03-22T07:46:52;99040.84;;;10.81;100.00
64340;BME280;63709;53.258;-8.814;2023-03-22T07:49:17;99055.50;;;10.77;100.00
64340;BME280;63709;53.258;-8.814;2023-03-22T07:51:43;99048.19;;;10.79;100.00
64340;BME280;63709;53.258;-8.814;2023-03-22T07:54:11;99049.88;;;10.88;100.00
64340;BME280;63709;53.258;-8.814;2023-03-22T07:56:38;99038.41;;;10.96;100.00
64340;BME280;63709;53.258;-8.814;2023-03-22T07:59:03;99037.44;;;11.05;100.00
64340;BME280;63709;53.258;-8.814;2023-03-22T08:01:30;99027.91;;;10.95;100.00
64340;BME280;63709;53.258;-8.814;2023-03-22T08:03:55;99021.88;;;11.01;100.00
64340;BME280;63709;53.258;-8.814;2023-03-22T08:06:21;99023.53;;;10.94;100.00
64340;BME280;63709;53.258;-8.814;2023-03-22T08:08:46;99014.69;;;10.93;100.00
64340;BME280;63709;53.258;-8.814;2023-03-22T08:11:12;99024.72;;;10.91;100.00
64340;BME280;63709;53.258;-8.814;2023-03-22T08:13:38;99027.88;;;10.86;100.00
64340;BME280;63709;53.258;-8.814;2023-03-22T08:16:03;99030.84;;;10.83;100.00
64340;BME280;63709;53.258;-8.814;2023-03-22T08:18:30;99033.22;;;10.95;100.00
64340;BME280;63709;53.258;-8.814;2023-03-22T08:20:57;99029.25;;;10.99;100.00
64340;BME280;63709;53.258;-8.814;2023-03-22T08:23:23;99031.44;;;11.11;100.00
64340;BME280;63709;53.258;-8.814;2023-03-22T08:25:49;99040.78;;;11.15;100.00
64340;BME280;63709;53.258;-8.814;2023-03-22T08:28:21;99044.50;;;11.31;100.00
64340;BME280;63709;53.258;-8.814;2023-03-22T08:30:48;99036.66;;;11.21;100.00
64340;BME280;63709;53.258;-8.814;2023-03-22T08:33:13;99045.66;;;11.20;100.00
64340;BME280;63709;53.258;-8.814;2023-03-22T08:35:39;99035.66;;;11.30;100.00
64340;BME280;63709;53.258;-8.814;2023-03-22T08:38:05;99035.00;;;11.28;100.00
64340;BME280;63709;53.258;-8.814;2023-03-22T08:40:31;99038.50;;;11.29;100.00
64340;BME280;63709;53.258;-8.814;2023-03-22T08:42:56;99035.00;;;11.36;100.00
64340;BME280;63709;53.258;-8.814;2023-03-22T08:45:22;99040.22;;;11.62;100.00
64340;BME280;63709;53.258;-8.814;2023-03-22T08:47:48;99028.53;;;11.72;100.00
64340;BME280;63709;53.258;-8.814;2023-03-22T08:50:15;99035.06;;;11.94;100.00
64340;BME280;63709;53.258;-8.814;2023-03-22T08:52:41;99020.88;;;12.09;100.00
64340;BME280;63709;53.258;-8.814;2023-03-22T08:55:06;99024.84;;;12.22;100.00
64340;BME280;63709;53.258;-8.814;2023-03-22T08:57:34;99027.69;;;12.20;100.00
64340;BME280;63709;53.258;-8.814;2023-03-22T09:00:00;99022.66;;;12.33;100.00
64340;BME280;63709;53.258;-8.814;2023-03-22T09:02:26;99019.31;;;12.31;100.00
64340;BME280;63709;53.258;-8.814;2023-03-22T09:04:52;99018.94;;;12.51;100.00
64340;BME280;63709;53.258;-8.814;2023-03-22T09:07:18;99027.59;;;12.53;100.00
64340;BME280;63709;53.258;-8.814;2023-03-22T09:09:44;99023.25;;;12.52;100.00
64340;BME280;63709;53.258;-8.814;2023-03-22T09:12:10;99023.41;;;12.58;100.00
64340;BME280;63709;53.258;-8.814;2023-03-22T09:14:37;99014.91;;;12.55;100.00
64340;BME280;63709;53.258;-8.814;2023-03-22T09:17:04;99023.59;;;12.57;100.00
64340;BME280;63709;53.258;-8.814;2023-03-22T09:19:29;99022.56;;;12.66;100.00
64340;BME280;63709;53.258;-8.814;2023-03-22T09:21:55;99015.94;;;12.85;100.00
64340;BME280;63709;53.258;-8.814;2023-03-22T09:24:21;99018.53;;;13.10;100.00
64340;BME280;63709;53.258;-8.814;2023-03-22T09:26:47;99009.16;;;13.37;100.00
64340;BME280;63709;53.258;-8.814;2023-03-22T09:29:15;98998.72;;;13.50;100.00
64340;BME280;63709;53.258;-8.814;2023-03-22T09:31:41;98996.06;;;13.42;100.00
64340;BME280;63709;53.258;-8.814;2023-03-22T09:34:06;98996.94;;;13.57;100.00
64340;BME280;63709;53.258;-8.814;2023-03-22T09:36:31;98994.66;;;13.54;100.00
64340;BME280;63709;53.258;-8.814;2023-03-22T09:38:57;98993.84;;;13.45;100.00
64340;BME280;63709;53.258;-8.814;2023-03-22T09:41:28;98996.72;;;13.44;100.00
64340;BME280;63709;53.258;-8.814;2023-03-22T09:43:58;99000.91;;;13.46;100.00
64340;BME280;63709;53.258;-8.814;2023-03-22T09:46:37;98984.00;;;13.15;100.00
64340;BME280;63709;53.258;-8.814;2023-03-22T09:49:04;98990.19;;;13.15;100.00
64340;BME280;63709;53.258;-8.814;2023-03-22T09:51:38;98990.16;;;13.23;100.00
64340;BME280;63709;53.258;-8.814;2023-03-22T09:54:50;98987.69;;;13.14;100.00
64340;BME280;63709;53.258;-8.814;2023-03-22T09:59:29;98981.28;;;13.46;100.00
64340;BME280;63709;53.258;-8.814;2023-03-22T10:02:01;98986.22;;;13.57;100.00
64340;BME280;63709;53.258;-8.814;2023-03-22T10:06:58;98976.22;;;13.74;100.00
64340;BME280;63709;53.258;-8.814;2023-03-22T10:09:30;98977.41;;;14.09;100.00
64340;BME280;63709;53.258;-8.814;2023-03-22T10:12:00;98968.53;;;14.53;100.00
64340;BME280;63709;53.258;-8.814;2023-03-22T10:14:31;98966.88;;;14.67;100.00
64340;BME280;63709;53.258;-8.814;2023-03-22T10:17:01;98966.09;;;14.88;100.00
64340;BME280;63709;53.258;-8.814;2023-03-22T10:19:37;98959.38;;;14.77;100.00
64340;BME280;63709;53.258;-8.814;2023-03-22T10:22:08;98973.50;;;14.86;100.00
64340;BME280;63709;53.258;-8.814;2023-03-22T10:24:35;98959.34;;;14.92;100.00
64340;BME280;63709;53.258;-8.814;2023-03-22T10:27:02;98960.63;;;14.96;100.00
64340;BME280;63709;53.258;-8.814;2023-03-22T10:29:29;98955.41;;;15.09;100.00
64340;BME280;63709;53.258;-8.814;2023-03-22T10:31:58;98951.03;;;15.08;100.00
64340;BME280;63709;53.258;-8.814;2023-03-22T10:34:39;98933.78;;;15.17;100.00
64340;BME280;63709;53.258;-8.814;2023-03-22T10:39:38;98934.41;;;15.41;100.00
64340;BME280;63709;53.258;-8.814;2023-03-22T10:42:10;98928.97;;;15.34;100.00
64340;BME280;63709;53.258;-8.814;2023-03-22T10:47:13;98935.16;;;15.35;100.00
64340;BME280;63709;53.258;-8.814;2023-03-22T10:49:41;98925.78;;;15.24;100.00
64340;BME280;63709;53.258;-8.814;2023-03-22T10:52:18;98934.28;;;15.28;100.00
64340;BME280;63709;53.258;-8.814;2023-03-22T10:54:45;98932.81;;;15.25;100.00
64340;BME280;63709;53.258;-8.814;2023-03-22T10:57:11;98930.88;;;15.19;100.00
64340;BME280;63709;53.258;-8.814;2023-03-22T10:59:55;98927.50;;;15.10;100.00
64340;BME280;63709;53.258;-8.814;2023-03-22T11:04:56;98922.88;;;15.04;100.00
64340;BME280;63709;53.258;-8.814;2023-03-22T11:10:10;98930.06;;;15.18;100.00
64340;BME280;63709;53.258;-8.814;2023-03-22T11:12:40;98926.94;;;15.36;100.00
64340;BME280;63709;53.258;-8.814;2023-03-22T11:15:13;98924.41;;;15.56;100.00
64340;BME280;63709;53.258;-8.814;2023-03-22T11:17:44;98921.81;;;15.91;100.00
64340;BME280;63709;53.258;-8.814;2023-03-22T11:20:12;98906.63;;;15.83;100.00
64340;BME280;63709;53.258;-8.814;2023-03-22T11:22:40;98911.19;;;15.83;100.00
64340;BME280;63709;53.258;-8.814;2023-03-22T11:25:18;98905.38;;;16.07;100.00
64340;BME280;63709;53.258;-8.814;2023-03-22T11:30:20;98895.66;;;16.13;100.00
64340;BME280;63709;53.258;-8.814;2023-03-22T11:32:46;98892.00;;;16.27;100.00
64340;BME280;63709;53.258;-8.814;2023-03-22T11:35:30;98899.50;;;16.32;100.00
64340;BME280;63709;53.258;-8.814;2023-03-22T11:37:55;98879.81;;;16.31;100.00
64340;BME280;63709;53.258;-8.814;2023-03-22T11:40:32;98890.09;;;16.14;100.00
64340;BME280;63709;53.258;-8.814;2023-03-22T11:45:43;98887.84;;;16.18;100.00
64340;BME280;63709;53.258;-8.814;2023-03-22T11:48:14;98896.19;;;15.95;100.00
64340;BME280;63709;53.258;-8.814;2023-03-22T11:50:42;98878.34;;;15.94;100.00
64340;BME280;63709;53.258;-8.814;2023-03-22T11:53:12;98859.56;;;16.01;100.00
64340;BME280;63709;53.258;-8.814;2023-03-22T11:55:39;98881.06;;;15.94;100.00
64340;BME280;63709;53.258;-8.814;2023-03-22T11:58:05;98858.13;;;16.05;100.00
64340;BME280;63709;53.258;-8.814;2023-03-22T12:00:32;98864.16;;;16.07;100.00
64340;BME280;63709;53.258;-8.814;2023-03-22T12:02:59;98856.91;;;16.07;100.00
64340;BME280;63709;53.258;-8.814;2023-03-22T12:05:30;98851.44;;;15.94;100.00
64340;BME280;63709;53.258;-8.814;2023-03-22T12:10:30;98857.56;;;15.75;100.00
64340;BME280;63709;53.258;-8.814;2023-03-22T12:13:00;98857.09;;;15.43;100.00
64340;BME280;63709;53.258;-8.814;2023-03-22T12:15:30;98846.81;;;15.53;100.00
64340;BME280;63709;53.258;-8.814;2023-03-22T12:20:56;98841.94;;;15.63;100.00
64340;BME280;63709;53.258;-8.814;2023-03-22T12:23:34;98831.88;;;15.72;100.00
64340;BME280;63709;53.258;-8.814;2023-03-22T12:28:40;98824.91;;;15.56;100.00
64340;BME280;63709;53.258;-8.814;2023-03-22T12:31:17;98819.47;;;15.49;100.00
64340;BME280;63709;53.258;-8.814;2023-03-22T12:33:55;98823.16;;;15.42;100.00
64340;BME280;63709;53.258;-8.814;2023-03-22T12:41:49;98817.56;;;15.15;100.00
64340;BME280;63709;53.258;-8.814;2023-03-22T12:44:26;98819.00;;;15.11;100.00
64340;BME280;63709;53.258;-8.814;2023-03-22T12:49:35;98820.59;;;14.63;100.00
64340;BME280;63709;53.258;-8.814;2023-03-22T12:54:42;98835.00;;;14.25;100.00
64340;BME280;63709;53.258;-8.814;2023-03-22T12:57:09;98822.47;;;13.96;100.00
64340;BME280;63709;53.258;-8.814;2023-03-22T12:59:35;98813.38;;;13.97;100.00
64340;BME280;63709;53.258;-8.814;2023-03-22T13:02:08;98792.41;;;13.71;100.00
64340;BME280;63709;53.258;-8.814;2023-03-22T13:07:10;98802.66;;;13.53;100.00
64340;BME280;63709;53.258;-8.814;2023-03-22T13:24:59;98797.25;;;12.86;100.00
64340;BME280;63709;53.258;-8.814;2023-03-22T13:27:36;98792.47;;;12.96;100.00
64340;BME280;63709;53.258;-8.814;2023-03-22T13:30:03;98779.75;;;12.98;100.00
64340;BME280;63709;53.258;-8.814;2023-03-22T13:32:34;98777.00;;;13.06;100.00
64340;BME280;63709;53.258;-8.814;2023-03-22T13:35:01;98769.50;;;13.01;100.00
64340;BME280;63709;53.258;-8.814;2023-03-22T13:37:31;98770.50;;;13.23;100.00
64340;BME280;63709;53.258;-8.814;2023-03-22T13:39:59;98763.88;;;13.11;100.00
64340;BME280;63709;53.258;-8.814;2023-03-22T13:42:35;98745.50;;;13.08;100.00
64340;BME280;63709;53.258;-8.814;2023-03-22T13:45:02;98753.91;;;13.20;100.00
64340;BME280;63709;53.258;-8.814;2023-03-22T13:50:12;98738.50;;;13.22;100.00
64340;BME280;63709;53.258;-8.814;2023-03-22T13:52:41;98744.28;;;12.96;100.00
64340;BME280;63709;53.258;-8.814;2023-03-22T13:58:02;98723.38;;;12.76;100.00
64340;BME280;63709;53.258;-8.814;2023-03-22T14:02:57;98724.13;;;12.85;100.00
64340;BME280;63709;53.258;-8.814;2023-03-22T14:05:27;98715.16;;;12.78;100.00
64340;BME280;63709;53.258;-8.814;2023-03-22T14:07:55;98716.00;;;12.78;100.00
64340;BME280;63709;53.258;-8.814;2023-03-22T14:13:26;98704.72;;;12.68;100.00
64340;BME280;63709;53.258;-8.814;2023-03-22T14:15:54;98688.81;;;13.19;100.00
64340;BME280;63709;53.258;-8.814;2023-03-22T14:18:26;98683.41;;;13.27;100.00
64340;BME280;63709;53.258;-8.814;2023-03-22T14:21:06;98664.41;;;13.59;100.00
64340;BME280;63709;53.258;-8.814;2023-03-22T14:23:37;98658.50;;;13.63;100.00
64340;BME280;63709;53.258;-8.814;2023-03-22T14:26:51;98658.19;;;13.73;100.00
64340;BME280;63709;53.258;-8.814;2023-03-22T14:28:54;98653.53;;;13.82;100.00